Time;durP1;ratioP1;P1;durP2;ratioP2;P2;SDS_P1;SDS_P2;PMS_P1;PMS_P2;Temp;Humidity;BMP_temperature;BMP_pressure;BME280_temperature;BME280_humidity;BME280_pressure;Samples;Min_cycle;Max_cycle;Signal;HPM_P1;HPM_P2
2023/06/28 00:00:03;;;;;;;4.87;3.13;;;17.30;99.90;;;;;;5047766;28;20654;-61
2023/06/28 00:02:36;;;;;;;5.83;3.17;;;17.20;99.90;;;;;;5048390;28;20216;-61
2023/06/28 00:05:08;;;;;;;4.97;3.37;;;17.20;99.90;;;;;;5047160;28;20219;-61
2023/06/28 00:07:38;;;;;;;7.67;3.90;;;17.30;99.90;;;;;;5050031;28;20231;-61
2023/06/28 00:10:07;;;;;;;5.47;3.07;;;17.20;99.90;;;;;;5045141;28;20599;-61
2023/06/28 00:12:35;;;;;;;10.63;3.53;;;17.20;99.90;;;;;;5050984;28;20224;-61
2023/06/28 00:15:04;;;;;;;7.70;3.37;;;17.20;99.90;;;;;;5050026;28;20587;-61
2023/06/28 00:17:32;;;;;;;6.77;3.50;;;17.20;99.90;;;;;;5044570;28;20606;-61
2023/06/28 00:20:06;;;;;;;5.67;3.60;;;17.20;99.90;;;;;;5043149;28;20226;-60
2023/06/28 00:22:34;;;;;;;4.70;3.80;;;17.20;99.90;;;;;;5044592;28;20230;-61
2023/06/28 00:25:05;;;;;;;4.20;3.40;;;17.20;99.90;;;;;;5044065;28;20220;-61
2023/06/28 00:27:34;;;;;;;7.00;3.50;;;17.20;99.90;;;;;;5047979;28;20694;-61
2023/06/28 00:30:02;;;;;;;6.07;3.73;;;17.20;99.90;;;;;;5052284;28;20279;-62
2023/06/28 00:32:30;;;;;;;9.30;3.97;;;17.20;99.90;;;;;;5045429;28;20571;-61
2023/06/28 00:34:58;;;;;;;3.57;3.13;;;17.20;99.90;;;;;;5045258;28;20273;-61
2023/06/28 00:37:27;;;;;;;7.17;3.57;;;17.20;99.90;;;;;;5050274;28;20309;-61
2023/06/28 00:39:56;;;;;;;6.43;3.17;;;17.20;99.90;;;;;;5050391;28;20227;-61
2023/06/28 00:42:25;;;;;;;7.33;3.87;;;17.10;99.90;;;;;;5054684;28;20288;-61
2023/06/28 00:44:53;;;;;;;7.23;3.20;;;17.10;99.90;;;;;;5053631;28;20193;-61
2023/06/28 00:47:22;;;;;;;6.73;3.50;;;17.10;99.90;;;;;;5053844;28;20204;-61
2023/06/28 00:49:53;;;;;;;5.07;3.20;;;17.20;99.90;;;;;;5054067;28;20255;-62
2023/06/28 00:52:22;;;;;;;8.50;3.33;;;17.20;99.90;;;;;;5052168;28;20219;-61
2023/06/28 00:54:50;;;;;;;5.13;3.50;;;17.20;99.90;;;;;;5088329;28;20739;-61
2023/06/28 00:57:19;;;;;;;6.03;3.40;;;17.20;99.90;;;;;;5076127;28;20210;-62
2023/06/28 00:59:50;;;;;;;5.90;3.53;;;17.20;99.90;;;;;;5073007;28;20203;-61
2023/06/28 01:02:19;;;;;;;6.87;3.70;;;17.20;99.90;;;;;;5087421;28;20226;-60
2023/06/28 01:04:48;;;;;;;8.53;3.30;;;17.20;99.90;;;;;;5097974;28;20248;-61
2023/06/28 01:07:17;;;;;;;5.40;3.10;;;17.20;99.90;;;;;;5095915;28;20342;-61
2023/06/28 01:09:46;;;;;;;4.47;3.10;;;17.30;99.90;;;;;;5092780;28;20228;-61
2023/06/28 01:12:14;;;;;;;3.20;2.90;;;17.20;99.90;;;;;;5098149;28;20194;-61
2023/06/28 01:14:42;;;;;;;7.90;3.60;;;17.20;99.90;;;;;;5076070;28;20193;-62
2023/06/28 01:17:12;;;;;;;4.20;3.33;;;17.20;99.90;;;;;;5091902;28;20208;-61
2023/06/28 01:19:41;;;;;;;6.83;3.27;;;17.20;99.90;;;;;;5089099;28;20601;-61
2023/06/28 01:22:12;;;;;;;5.70;3.07;;;17.20;99.90;;;;;;5089754;28;20255;-61
2023/06/28 01:24:42;;;;;;;6.33;3.40;;;17.20;99.90;;;;;;5093915;28;20219;-61
2023/06/28 01:27:13;;;;;;;6.40;3.77;;;17.20;99.90;;;;;;5093852;28;20186;-61
2023/06/28 01:29:42;;;;;;;4.13;3.20;;;17.20;99.90;;;;;;5091894;28;20217;-61
2023/06/28 01:32:10;;;;;;;4.50;3.30;;;17.10;99.90;;;;;;5094005;28;20220;-60
2023/06/28 01:34:38;;;;;;;5.10;3.57;;;17.10;99.90;;;;;;5094024;28;20218;-61
2023/06/28 01:37:07;;;;;;;8.13;3.80;;;17.10;99.90;;;;;;5092346;28;20428;-60
2023/06/28 01:39:35;;;;;;;6.13;3.43;;;17.10;99.90;;;;;;5087842;28;20222;-61
2023/06/28 01:42:06;;;;;;;7.73;3.40;;;17.10;99.90;;;;;;5069202;28;20182;-61
2023/06/28 01:44:35;;;;;;;3.97;3.37;;;17.20;99.90;;;;;;5086760;28;20215;-60
2023/06/28 01:47:03;;;;;;;7.27;3.37;;;17.20;99.90;;;;;;5087969;28;20228;-60
2023/06/28 01:49:33;;;;;;;7.17;3.50;;;17.20;99.90;;;;;;5090238;28;20695;-61
2023/06/28 01:52:01;;;;;;;10.20;3.27;;;17.20;99.90;;;;;;5085451;28;20576;-60
2023/06/28 01:54:32;;;;;;;5.83;3.07;;;17.20;99.90;;;;;;5084257;28;20249;-61
2023/06/28 01:57:00;;;;;;;7.20;3.20;;;17.20;99.90;;;;;;5074861;28;20312;-61
2023/06/28 01:59:31;;;;;;;5.70;3.27;;;17.10;99.90;;;;;;5084594;28;20236;-61
2023/06/28 02:01:59;;;;;;;5.20;3.47;;;17.10;99.90;;;;;;5085448;28;20225;-60
2023/06/28 02:04:27;;;;;;;5.47;3.30;;;17.10;99.90;;;;;;5068989;28;20747;-60
2023/06/28 02:06:56;;;;;;;4.17;3.30;;;17.10;99.90;;;;;;5087958;28;20303;-62
2023/06/28 02:09:25;;;;;;;6.37;3.57;;;17.10;99.90;;;;;;5063185;28;20205;-60
2023/06/28 02:11:53;;;;;;;7.50;3.30;;;17.10;99.90;;;;;;5087102;28;20195;-61
2023/06/28 02:14:21;;;;;;;6.37;3.37;;;17.10;99.90;;;;;;5073458;28;20217;-61
2023/06/28 02:16:53;;;;;;;4.20;3.60;;;17.00;99.90;;;;;;5092347;28;20243;-60
2023/06/28 02:19:21;;;;;;;5.10;3.67;;;17.00;99.90;;;;;;5091463;28;20602;-60
2023/06/28 02:21:49;;;;;;;7.17;3.47;;;17.00;99.90;;;;;;5069555;28;20223;-61
2023/06/28 02:24:17;;;;;;;5.23;3.23;;;17.00;99.90;;;;;;5090851;28;20193;-61
2023/06/28 02:26:46;;;;;;;3.47;3.17;;;17.00;99.90;;;;;;5093399;28;20541;-61
2023/06/28 02:29:14;;;;;;;6.43;3.37;;;17.00;99.90;;;;;;5091705;28;20570;-60
2023/06/28 02:31:42;;;;;;;8.33;3.40;;;17.00;99.90;;;;;;5090269;28;20226;-61
2023/06/28 02:34:12;;;;;;;3.87;3.27;;;17.00;99.90;;;;;;5092398;28;20215;-61
2023/06/28 02:36:40;;;;;;;7.90;3.30;;;17.10;99.90;;;;;;5089478;28;20217;-61
2023/06/28 02:39:09;;;;;;;4.87;3.20;;;17.10;99.90;;;;;;5087281;28;20208;-60
2023/06/28 02:41:37;;;;;;;3.87;2.83;;;17.10;99.90;;;;;;5090159;28;20253;-60
2023/06/28 02:44:05;;;;;;;3.97;2.97;;;17.10;99.90;;;;;;5092241;28;20214;-60
2023/06/28 02:46:33;;;;;;;4.87;3.07;;;17.10;99.90;;;;;;5091779;28;20224;-61
2023/06/28 02:49:02;;;;;;;3.90;3.17;;;17.10;99.90;;;;;;5090647;28;20226;-61
2023/06/28 02:51:32;;;;;;;6.47;3.20;;;17.10;99.90;;;;;;5086339;28;20195;-61
2023/06/28 02:54:00;;;;;;;3.50;2.90;;;17.10;99.90;;;;;;5092626;28;20589;-61
2023/06/28 02:56:30;;;;;;;3.67;2.77;;;17.20;99.90;;;;;;5088225;28;20324;-60
2023/06/28 02:58:58;;;;;;;5.70;3.37;;;17.10;99.90;;;;;;5082391;28;20215;-61
2023/06/28 03:01:26;;;;;;;9.87;3.20;;;17.10;99.90;;;;;;5089696;28;20233;-60
2023/06/28 03:03:55;;;;;;;5.63;3.23;;;17.10;99.90;;;;;;5083979;28;20581;-61
2023/06/28 03:06:23;;;;;;;8.73;3.27;;;17.10;99.90;;;;;;5089942;27;20229;-60
2023/06/28 03:08:53;;;;;;;7.67;2.80;;;17.10;99.90;;;;;;5083607;28;20191;-60
2023/06/28 03:11:21;;;;;;;4.83;2.90;;;17.10;99.90;;;;;;5091382;28;20219;-60
2023/06/28 03:13:50;;;;;;;4.13;3.03;;;17.10;99.90;;;;;;5089281;28;20215;-60
2023/06/28 03:16:18;;;;;;;5.00;2.90;;;17.10;99.90;;;;;;5084781;28;20569;-60
2023/06/28 03:18:46;;;;;;;3.83;3.10;;;17.10;99.90;;;;;;5089251;28;20231;-60
2023/06/28 03:21:15;;;;;;;4.77;2.70;;;17.10;99.90;;;;;;5089017;28;20202;-61
2023/06/28 03:23:43;;;;;;;5.40;3.17;;;17.10;99.90;;;;;;5090573;28;20207;-60
2023/06/28 03:26:13;;;;;;;5.13;2.77;;;17.10;99.90;;;;;;5091183;28;20218;-60
2023/06/28 03:28:41;;;;;;;5.77;2.80;;;17.10;99.90;;;;;;5091408;28;20302;-60
2023/06/28 03:31:09;;;;;;;5.73;3.33;;;17.00;99.90;;;;;;5084821;28;20562;-60
2023/06/28 03:33:38;;;;;;;4.83;3.10;;;17.10;99.90;;;;;;5091748;28;20578;-60
2023/06/28 03:36:06;;;;;;;5.93;3.03;;;17.10;99.90;;;;;;5076499;28;20194;-61
2023/06/28 03:38:34;;;;;;;5.77;3.00;;;17.20;99.90;;;;;;5082994;28;20224;-60
2023/06/28 03:41:03;;;;;;;4.47;3.03;;;17.10;99.90;;;;;;5081175;28;20219;-60
2023/06/28 03:43:32;;;;;;;3.50;2.53;;;17.10;99.90;;;;;;5090026;28;20218;-60
2023/06/28 03:46:01;;;;;;;8.07;3.03;;;17.10;99.90;;;;;;5091176;28;20218;-61
2023/06/28 03:48:29;;;;;;;5.23;3.07;;;17.10;99.90;;;;;;5089799;28;20183;-61
2023/06/28 03:50:57;;;;;;;5.77;3.30;;;17.20;99.90;;;;;;5086088;28;20193;-60
2023/06/28 03:53:25;;;;;;;10.73;3.23;;;17.30;99.90;;;;;;5088276;28;20256;-60
2023/06/28 03:55:54;;;;;;;6.13;3.13;;;17.30;99.90;;;;;;5091406;28;20230;-60
2023/06/28 03:58:22;;;;;;;11.13;3.63;;;17.30;99.90;;;;;;5091383;28;20230;-60
2023/06/28 04:00:52;;;;;;;5.87;3.10;;;17.30;99.90;;;;;;5086681;28;20747;-60
2023/06/28 04:03:21;;;;;;;9.17;3.20;;;17.20;99.90;;;;;;5087275;28;20250;-60
2023/06/28 04:05:49;;;;;;;10.67;3.40;;;17.20;99.90;;;;;;5086566;28;20589;-60
2023/06/28 04:08:17;;;;;;;3.10;2.80;;;17.20;99.90;;;;;;5088764;28;20306;-60
2023/06/28 04:10:46;;;;;;;5.20;3.30;;;17.20;99.90;;;;;;5090912;28;20209;-60
2023/06/28 04:13:14;;;;;;;3.77;3.20;;;17.20;99.90;;;;;;5091550;28;20225;-60
2023/06/28 04:15:42;;;;;;;6.30;3.40;;;17.10;99.90;;;;;;5092085;28;20239;-59
2023/06/28 04:18:12;;;;;;;9.40;3.47;;;17.10;99.90;;;;;;5084495;28;20208;-60
2023/06/28 04:20:40;;;;;;;7.67;3.10;;;17.10;99.90;;;;;;5093278;28;20221;-60
2023/06/28 04:23:09;;;;;;;4.97;2.93;;;17.10;99.90;;;;;;5094068;28;20283;-59
2023/06/28 04:25:37;;;;;;;5.80;3.20;;;17.10;99.90;;;;;;5093210;28;20227;-60
2023/06/28 04:28:06;;;;;;;6.93;3.60;;;17.10;99.90;;;;;;5094706;28;20203;-60
2023/06/28 04:30:34;;;;;;;5.67;3.43;;;17.10;99.90;;;;;;5095220;28;20314;-60
2023/06/28 04:33:04;;;;;;;5.80;3.27;;;17.10;99.90;;;;;;5095107;28;20197;-60
2023/06/28 04:35:35;;;;;;;6.40;3.27;;;17.10;99.90;;;;;;5091167;28;20693;-60
2023/06/28 04:38:04;;;;;;;4.83;3.33;;;17.10;99.90;;;;;;5086861;28;20212;-59
2023/06/28 04:40:34;;;;;;;5.20;3.30;;;17.20;99.90;;;;;;5093457;28;20213;-59
2023/06/28 04:43:02;;;;;;;10.67;3.57;;;17.20;99.90;;;;;;5075731;28;20222;-60
2023/06/28 04:45:36;;;;;;;4.53;3.33;;;17.20;99.90;;;;;;5090646;28;20191;-60
2023/06/28 04:48:06;;;;;;;7.47;3.57;;;17.20;99.90;;;;;;5089877;28;20624;-59
2023/06/28 04:50:37;;;;;;;9.87;3.30;;;17.20;99.90;;;;;;5090312;28;20222;-60
2023/06/28 04:53:06;;;;;;;7.83;3.73;;;17.30;99.90;;;;;;5092437;28;20713;-59
2023/06/28 04:55:35;;;;;;;11.67;3.83;;;17.30;99.90;;;;;;5090682;28;20222;-59
2023/06/28 04:58:07;;;;;;;8.27;3.90;;;17.30;99.90;;;;;;5095668;28;20721;-60
2023/06/28 05:00:35;;;;;;;8.73;3.80;;;17.30;99.90;;;;;;5091212;28;20647;-60
2023/06/28 05:03:03;;;;;;;8.90;3.50;;;17.30;99.90;;;;;;5091044;28;20191;-60
2023/06/28 05:05:32;;;;;;;11.27;3.90;;;17.30;99.90;;;;;;5093537;28;20224;-59
2023/06/28 05:08:03;;;;;;;11.00;3.90;;;17.30;99.90;;;;;;5087720;28;20219;-59
2023/06/28 05:10:31;;;;;;;7.07;4.00;;;17.40;99.90;;;;;;5088827;28;20231;-60
2023/06/28 05:13:00;;;;;;;6.13;3.43;;;17.50;99.90;;;;;;5079406;28;20219;-60
2023/06/28 05:15:32;;;;;;;9.77;3.97;;;17.60;99.90;;;;;;5092533;28;20195;-59
2023/06/28 05:18:00;;;;;;;7.57;3.43;;;17.60;99.90;;;;;;5089722;28;20184;-59
2023/06/28 05:20:29;;;;;;;7.53;4.63;;;17.60;99.90;;;;;;5086866;28;20222;-59
2023/06/28 05:23:11;;;;;;;6.30;4.03;;;17.60;99.90;;;;;;5064534;28;20222;-59
2023/06/28 05:25:40;;;;;;;8.80;3.60;;;17.70;99.90;;;;;;5089550;28;20582;-59
2023/06/28 05:28:10;;;;;;;9.40;3.87;;;17.70;99.90;;;;;;5092349;28;20274;-59
2023/06/28 05:30:40;;;;;;;8.27;3.57;;;17.70;99.90;;;;;;5076928;28;20346;-59
2023/06/28 05:33:09;;;;;;;5.13;3.53;;;17.70;99.90;;;;;;5085842;28;20191;-60
2023/06/28 05:35:38;;;;;;;13.10;3.73;;;17.70;99.90;;;;;;5092417;28;20570;-60
2023/06/28 05:38:07;;;;;;;9.80;4.23;;;17.80;99.90;;;;;;5098653;28;20221;-60
2023/06/28 05:40:36;;;;;;;6.97;3.83;;;17.80;99.90;;;;;;5091375;28;20218;-59
2023/06/28 05:43:05;;;;;;;8.77;4.30;;;17.90;99.90;;;;;;5086223;28;20220;-59
2023/06/28 05:45:33;;;;;;;6.80;4.03;;;17.80;99.90;;;;;;5090452;28;20594;-60
2023/06/28 05:48:01;;;;;;;7.37;4.00;;;17.90;99.90;;;;;;5086738;28;20598;-59
2023/06/28 05:50:29;;;;;;;4.67;3.77;;;18.00;99.90;;;;;;5088558;28;20585;-60
2023/06/28 05:52:58;;;;;;;14.43;4.43;;;18.00;99.90;;;;;;5088772;28;20568;-60
2023/06/28 05:55:27;;;;;;;11.50;4.33;;;18.00;99.90;;;;;;5086272;28;20332;-60
2023/06/28 05:57:57;;;;;;;13.57;4.57;;;18.00;99.90;;;;;;5084560;28;20230;-59
2023/06/28 06:00:25;;;;;;;8.53;3.97;;;18.10;99.90;;;;;;5087096;28;20215;-60
2023/06/28 06:02:53;;;;;;;8.03;3.97;;;18.10;99.90;;;;;;5087410;28;20295;-60
2023/06/28 06:05:22;;;;;;;11.30;4.23;;;18.10;99.90;;;;;;5086679;28;20223;-59
2023/06/28 06:07:50;;;;;;;9.67;4.17;;;18.10;99.90;;;;;;5080281;28;20229;-59
2023/06/28 06:10:18;;;;;;;11.43;4.50;;;18.10;99.90;;;;;;5089849;28;20215;-59
2023/06/28 06:12:47;;;;;;;10.13;4.60;;;18.10;99.90;;;;;;5086084;28;20218;-60
2023/06/28 06:15:16;;;;;;;5.77;4.30;;;18.20;99.90;;;;;;5089696;28;20202;-59
2023/06/28 06:17:46;;;;;;;7.97;4.30;;;18.20;99.90;;;;;;5071378;28;20188;-59
2023/06/28 06:20:15;;;;;;;9.00;4.40;;;18.10;99.90;;;;;;5073601;28;20314;-60
2023/06/28 06:22:43;;;;;;;10.17;4.27;;;18.20;99.90;;;;;;5091009;28;20219;-58
2023/06/28 06:25:12;;;;;;;11.13;4.30;;;18.20;99.90;;;;;;5073690;28;20219;-60
2023/06/28 06:27:40;;;;;;;8.83;4.07;;;18.20;99.90;;;;;;5087204;28;20219;-60
2023/06/28 06:30:11;;;;;;;10.97;4.30;;;18.20;99.90;;;;;;5091385;28;20535;-59
2023/06/28 06:32:41;;;;;;;9.27;4.30;;;18.20;99.90;;;;;;5087247;28;20215;-59
2023/06/28 06:35:10;;;;;;;8.50;4.40;;;18.20;99.90;;;;;;5088392;28;20211;-59
2023/06/28 06:37:38;;;;;;;7.27;4.53;;;18.20;99.90;;;;;;5086487;28;20223;-59
2023/06/28 06:40:10;;;;;;;18.20;5.10;;;18.30;99.90;;;;;;5070637;28;20307;-59
2023/06/28 06:42:39;;;;;;;13.40;4.73;;;18.40;99.90;;;;;;5087041;28;20717;-59
2023/06/28 06:45:08;;;;;;;12.77;4.77;;;18.40;99.90;;;;;;5091347;28;20206;-60
2023/06/28 06:47:39;;;;;;;8.80;4.70;;;18.50;99.90;;;;;;5089595;28;20215;-59
2023/06/28 06:50:09;;;;;;;12.90;4.80;;;18.50;99.90;;;;;;5087675;28;20217;-60
2023/06/28 06:52:38;;;;;;;11.90;4.50;;;18.50;99.90;;;;;;5083340;28;20755;-60
2023/06/28 06:55:07;;;;;;;10.50;4.47;;;18.50;99.90;;;;;;5083231;28;20280;-59
2023/06/28 06:57:35;;;;;;;11.63;4.93;;;18.60;99.90;;;;;;5090599;28;20219;-60
2023/06/28 07:00:05;;;;;;;9.70;4.67;;;18.70;99.90;;;;;;5087788;28;20531;-59
2023/06/28 07:02:33;;;;;;;13.50;4.90;;;18.80;99.90;;;;;;5089367;28;20237;-59
2023/06/28 07:05:03;;;;;;;11.93;5.10;;;18.70;99.90;;;;;;5084325;28;20681;-59
2023/06/28 07:07:32;;;;;;;9.80;4.70;;;18.80;99.90;;;;;;5083190;28;20272;-59
2023/06/28 07:10:00;;;;;;;9.93;4.97;;;18.90;99.90;;;;;;5091590;28;20310;-58
2023/06/28 07:12:28;;;;;;;8.87;5.10;;;19.10;99.90;;;;;;5090627;28;20203;-59
2023/06/28 07:14:57;;;;;;;9.73;5.13;;;19.30;99.90;;;;;;5084454;28;20183;-60
2023/06/28 07:17:25;;;;;;;12.47;4.97;;;19.70;99.90;;;;;;5083037;28;20222;-59
2023/06/28 07:19:53;;;;;;;13.40;5.27;;;19.80;99.90;;;;;;5091901;28;20242;-59
2023/06/28 07:22:23;;;;;;;10.10;4.87;;;19.90;99.90;;;;;;5086444;28;20227;-59
2023/06/28 07:24:52;;;;;;;13.63;5.53;;;20.00;99.90;;;;;;5087405;28;20582;-60
2023/06/28 07:27:20;;;;;;;10.00;4.63;;;19.90;99.90;;;;;;5090836;28;20735;-59
2023/06/28 07:29:48;;;;;;;9.17;5.37;;;19.80;99.90;;;;;;5089961;28;20207;-59
2023/06/28 07:32:16;;;;;;;5.67;4.90;;;19.80;99.90;;;;;;5086395;28;20224;-59
2023/06/28 07:34:45;;;;;;;11.27;5.70;;;20.00;99.90;;;;;;5087020;28;20247;-59
2023/06/28 07:37:14;;;;;;;8.20;5.27;;;20.20;99.90;;;;;;5090733;28;20223;-60
2023/06/28 07:39:43;;;;;;;10.80;5.57;;;20.40;99.90;;;;;;5091790;28;20227;-60
2023/06/28 07:42:12;;;;;;;12.13;5.70;;;20.70;99.90;;;;;;5087426;28;20192;-59
2023/06/28 07:44:40;;;;;;;17.33;6.57;;;20.90;99.90;;;;;;5090509;28;20270;-60
2023/06/28 07:47:09;;;;;;;10.23;5.57;;;20.80;99.90;;;;;;5089077;28;20554;-59
2023/06/28 07:49:38;;;;;;;9.97;5.10;;;20.90;99.90;;;;;;5085246;28;20224;-59
2023/06/28 07:52:07;;;;;;;10.03;5.90;;;20.90;99.90;;;;;;5082856;28;20671;-59
2023/06/28 07:54:35;;;;;;;10.00;5.43;;;20.90;99.90;;;;;;5088061;28;20223;-60
2023/06/28 07:57:05;;;;;;;17.47;5.83;;;20.80;99.90;;;;;;5090784;28;20191;-59
2023/06/28 07:59:34;;;;;;;14.60;5.90;;;20.70;99.90;;;;;;5088570;28;20322;-59
2023/06/28 08:02:02;;;;;;;13.40;5.43;;;20.70;99.90;;;;;;5087773;28;20302;-59
2023/06/28 08:04:30;;;;;;;16.53;5.37;;;20.70;99.90;;;;;;5088677;28;20277;-60
2023/06/28 08:06:59;;;;;;;13.87;5.37;;;20.70;99.90;;;;;;5082541;28;20229;-59
2023/06/28 08:09:28;;;;;;;12.57;5.43;;;20.70;99.90;;;;;;5089309;28;20198;-59
2023/06/28 08:11:56;;;;;;;16.30;5.80;;;20.70;99.90;;;;;;5090022;28;20213;-59
2023/06/28 08:14:26;;;;;;;11.67;6.00;;;20.80;99.90;;;;;;5085011;28;20280;-60
2023/06/28 08:16:55;;;;;;;12.43;6.63;;;20.90;99.90;;;;;;5090017;28;20673;-59
2023/06/28 08:19:23;;;;;;;9.10;5.13;;;21.00;99.90;;;;;;5089095;28;20262;-59
2023/06/28 08:21:51;;;;;;;15.93;6.00;;;21.10;99.90;;;;;;5086029;28;20698;-60
2023/06/28 08:24:19;;;;;;;7.80;5.73;;;21.20;99.90;;;;;;5064408;28;20766;-59
2023/06/28 08:26:48;;;;;;;14.87;6.23;;;21.20;99.90;;;;;;5086537;28;20184;-59
2023/06/28 08:29:16;;;;;;;10.73;5.57;;;21.20;99.90;;;;;;5086590;28;20219;-59
2023/06/28 08:31:46;;;;;;;14.53;5.90;;;21.40;99.90;;;;;;5090375;28;20230;-59
2023/06/28 08:34:15;;;;;;;13.07;5.90;;;21.40;99.90;;;;;;5089706;28;20222;-59
2023/06/28 08:36:43;;;;;;;11.33;6.33;;;21.30;99.90;;;;;;5086013;28;20219;-60
2023/06/28 08:39:12;;;;;;;10.57;5.60;;;21.50;99.90;;;;;;5080344;28;20639;-60
2023/06/28 08:41:42;;;;;;;11.77;5.97;;;21.50;99.90;;;;;;5084874;28;20211;-59
2023/06/28 08:44:13;;;;;;;7.83;5.23;;;21.50;99.90;;;;;;5089774;28;20249;-60
2023/06/28 08:46:45;;;;;;;12.23;5.83;;;21.60;99.90;;;;;;5089957;28;20211;-59
2023/06/28 08:49:15;;;;;;;10.47;6.17;;;21.70;99.90;;;;;;5088891;28;20305;-60
2023/06/28 08:51:44;;;;;;;15.60;6.47;;;21.60;99.90;;;;;;5088029;28;20628;-59
2023/06/28 08:54:14;;;;;;;14.53;6.30;;;21.60;99.90;;;;;;5090240;28;20246;-60
2023/06/28 08:56:43;;;;;;;14.20;6.77;;;21.60;99.90;;;;;;5084621;28;20209;-57
2023/06/28 08:59:21;;;;;;;14.40;6.80;;;21.70;99.90;;;;;;5066945;28;20265;-58
2023/06/28 09:01:55;;;;;;;15.83;6.27;;;21.80;99.90;;;;;;5088884;28;20577;-58
2023/06/28 09:04:24;;;;;;;15.37;6.43;;;22.00;99.90;;;;;;5093261;28;20683;-58
2023/06/28 09:06:53;;;;;;;16.40;6.40;;;22.10;99.90;;;;;;5087158;28;20221;-58
2023/06/28 09:09:22;;;;;;;9.10;6.20;;;22.20;99.90;;;;;;5075917;28;20192;-58
2023/06/28 09:11:51;;;;;;;13.77;6.03;;;22.20;99.90;;;;;;5094467;28;20196;-57
2023/06/28 09:14:19;;;;;;;13.90;6.77;;;22.20;99.90;;;;;;5086868;28;20220;-58
2023/06/28 09:16:48;;;;;;;10.10;6.43;;;22.20;99.90;;;;;;5087152;28;20698;-58
2023/06/28 09:19:17;;;;;;;8.93;5.93;;;22.20;99.90;;;;;;5093602;28;20230;-58
2023/06/28 09:21:46;;;;;;;11.47;5.97;;;22.20;99.90;;;;;;5091370;28;20717;-58
2023/06/28 09:24:14;;;;;;;11.93;6.87;;;22.20;99.90;;;;;;5089442;28;20569;-58
2023/06/28 09:26:43;;;;;;;13.20;6.50;;;22.30;99.90;;;;;;5094055;28;20197;-59
2023/06/28 09:29:13;;;;;;;10.93;6.03;;;22.30;99.90;;;;;;5083633;28;20533;-58
2023/06/28 09:31:42;;;;;;;11.03;6.27;;;22.30;99.90;;;;;;5092136;28;20217;-58
2023/06/28 09:34:11;;;;;;;18.60;6.63;;;22.40;99.90;;;;;;5091689;28;20216;-58
2023/06/28 09:36:41;;;;;;;11.37;6.53;;;22.50;99.90;;;;;;5068095;28;20225;-58
2023/06/28 09:39:09;;;;;;;12.93;6.60;;;22.60;99.90;;;;;;5094558;28;20194;-57
2023/06/28 09:41:39;;;;;;;14.57;6.90;;;22.70;99.90;;;;;;5090187;28;20332;-59
2023/06/28 09:44:09;;;;;;;18.07;6.63;;;22.80;99.90;;;;;;5093102;28;20221;-57
2023/06/28 09:46:44;;;;;;;10.03;6.20;;;22.80;99.90;;;;;;5088796;28;20222;-58
2023/06/28 09:49:23;;;;;;;15.70;7.73;;;22.90;99.90;;;;;;5088832;28;20213;-57
2023/06/28 09:52:01;;;;;;;17.93;7.97;;;22.90;99.90;;;;;;5090872;28;21674;-58
2023/06/28 09:54:31;;;;;;;16.27;7.57;;;22.90;99.90;;;;;;5085454;28;22853;-58
2023/06/28 09:57:00;;;;;;;15.70;8.10;;;22.80;99.90;;;;;;5092455;28;20197;-57
2023/06/28 09:59:32;;;;;;;15.73;7.07;;;22.70;99.90;;;;;;5092165;28;20252;-58
2023/06/28 10:02:07;;;;;;;19.37;7.17;;;22.60;99.90;;;;;;5091918;28;20215;-58
2023/06/28 10:04:37;;;;;;;10.70;7.03;;;22.70;99.90;;;;;;5074180;28;20228;-58
2023/06/28 10:07:10;;;;;;;12.40;7.40;;;22.80;99.90;;;;;;5091576;28;20216;-57
2023/06/28 10:09:40;;;;;;;14.20;7.50;;;22.90;99.90;;;;;;5089229;28;20220;-58
2023/06/28 10:12:13;;;;;;;21.27;7.80;;;22.90;99.90;;;;;;5091158;28;20185;-57
2023/06/28 10:14:45;;;;;;;12.07;7.20;;;23.00;99.90;;;;;;5089549;28;20221;-59
2023/06/28 10:17:15;;;;;;;11.10;7.50;;;23.00;99.90;;;;;;5092023;28;20226;-58
2023/06/28 10:19:44;;;;;;;16.23;7.77;;;23.00;99.90;;;;;;5092819;28;20221;-58
2023/06/28 10:22:15;;;;;;;16.60;8.17;;;23.10;99.90;;;;;;5091680;28;20244;-58
2023/06/28 10:24:44;;;;;;;14.37;8.30;;;23.00;99.90;;;;;;5088606;28;20225;-58
2023/06/28 10:27:14;;;;;;;14.57;7.60;;;23.10;99.90;;;;;;5083853;28;20555;-58
2023/06/28 10:29:44;;;;;;;21.67;8.27;;;23.20;99.90;;;;;;5071192;28;20217;-58
2023/06/28 10:32:13;;;;;;;17.47;7.67;;;23.30;99.90;;;;;;5089354;28;20689;-57
2023/06/28 10:34:42;;;;;;;16.27;8.80;;;23.40;99.90;;;;;;5090758;28;20631;-58
2023/06/28 10:37:11;;;;;;;15.23;7.90;;;23.40;99.90;;;;;;5083206;28;20232;-58
2023/06/28 10:39:41;;;;;;;16.27;7.47;;;23.50;99.90;;;;;;5088430;28;20223;-58
2023/06/28 10:42:09;;;;;;;14.20;8.10;;;23.60;99.90;;;;;;5082856;28;20573;-58
2023/06/28 10:44:51;;;;;;;16.40;8.03;;;23.70;99.90;;;;;;5087796;28;20227;-58
2023/06/28 10:47:19;;;;;;;17.40;7.77;;;23.60;99.90;;;;;;5092144;28;20240;-58
2023/06/28 10:50:09;;;;;;;17.33;7.40;;;23.50;99.90;;;;;;5088350;28;20222;-58
2023/06/28 10:52:45;;;;;;;16.30;8.00;;;23.50;99.90;;;;;;5084354;28;20256;-58
2023/06/28 10:55:18;;;;;;;17.03;8.40;;;23.50;99.90;;;;;;5046854;28;20225;-58
2023/06/28 10:58:04;;;;;;;14.10;8.07;;;23.50;99.90;;;;;;5043350;28;20229;-58
2023/06/28 11:00:43;;;;;;;15.33;8.03;;;23.60;99.90;;;;;;5048832;28;20205;-57
2023/06/28 11:03:13;;;;;;;11.43;7.67;;;23.70;99.90;;;;;;5050347;28;20214;-57
2023/06/28 11:05:53;;;;;;;16.30;9.00;;;23.80;99.90;;;;;;5041854;28;20219;-59
2023/06/28 11:08:23;;;;;;;14.03;8.73;;;23.90;99.90;;;;;;5043262;28;20219;-57
2023/06/28 11:10:58;;;;;;;13.90;7.67;;;23.90;99.90;;;;;;5045054;28;21950;-58
2023/06/28 11:13:44;;;;;;;14.07;8.13;;;24.00;99.90;;;;;;5047323;28;20685;-57
2023/06/28 11:16:16;;;;;;;14.00;8.00;;;24.10;99.90;;;;;;5043736;28;20446;-57
2023/06/28 11:18:46;;;;;;;16.07;8.03;;;24.20;99.90;;;;;;5043062;28;20763;-56
2023/06/28 11:21:19;;;;;;;14.40;7.97;;;24.30;99.90;;;;;;5045487;28;20661;-57
2023/06/28 11:23:47;;;;;;;14.53;8.60;;;24.30;99.90;;;;;;5040453;28;20539;-58
2023/06/28 11:26:32;;;;;;;16.37;7.90;;;24.50;99.90;;;;;;5037426;28;20220;-57
2023/06/28 11:29:01;;;;;;;11.53;8.30;;;24.70;99.90;;;;;;5039073;28;20717;-57
2023/06/28 11:31:39;;;;;;;11.00;7.20;;;24.70;99.90;;;;;;5036689;28;20311;-57
2023/06/28 11:34:09;;;;;;;13.27;7.97;;;24.80;99.90;;;;;;5049340;28;20222;-58
2023/06/28 11:36:38;;;;;;;15.00;8.40;;;24.90;99.90;;;;;;5043000;28;20231;-57
2023/06/28 11:39:07;;;;;;;12.03;8.13;;;24.90;99.90;;;;;;5046725;28;20197;-58
2023/06/28 11:41:36;;;;;;;12.10;7.60;;;24.90;99.90;;;;;;5043883;28;20228;-57
2023/06/28 11:44:07;;;;;;;9.17;6.07;;;25.00;99.90;;;;;;5048568;28;20223;-60
2023/06/28 11:46:36;;;;;;;11.60;6.20;;;24.90;99.90;;;;;;5044111;28;20216;-60
2023/06/28 11:49:04;;;;;;;11.60;7.80;;;25.10;99.90;;;;;;5043795;28;20220;-62
2023/06/28 11:51:33;;;;;;;14.53;8.33;;;25.50;99.90;;;;;;5045792;28;20208;-62
2023/06/28 11:54:01;;;;;;;13.60;8.13;;;25.40;99.90;;;;;;5064037;28;20234;-58
2023/06/28 11:56:41;;;;;;;13.13;7.83;;;25.30;99.90;;;;;;5086518;28;20223;-58
2023/06/28 11:59:14;;;;;;;19.10;8.53;;;25.30;99.90;;;;;;5085809;28;20229;-57
2023/06/28 12:01:43;;;;;;;10.47;7.03;;;25.20;99.90;;;;;;5087388;28;20711;-59
2023/06/28 12:04:16;;;;;;;15.03;8.20;;;25.10;99.90;;;;;;5086187;28;20679;-58
2023/06/28 12:06:50;;;;;;;12.93;7.90;;;25.10;99.90;;;;;;5086576;28;20222;-57
2023/06/28 12:09:20;;;;;;;14.47;8.43;;;25.10;99.90;;;;;;5085388;28;20669;-58
2023/06/28 12:11:54;;;;;;;12.73;7.33;;;25.20;99.90;;;;;;5083625;28;20550;-58
2023/06/28 12:14:23;;;;;;;15.33;7.63;;;25.30;99.90;;;;;;5086287;28;20226;-57
2023/06/28 12:16:51;;;;;;;10.77;7.30;;;25.40;99.90;;;;;;5088873;28;20219;-58
2023/06/28 12:19:20;;;;;;;16.77;8.37;;;25.50;99.90;;;;;;5085475;28;20227;-58
2023/06/28 12:21:49;;;;;;;11.60;7.17;;;25.60;99.90;;;;;;5088027;28;20223;-57
2023/06/28 12:24:20;;;;;;;9.80;6.93;;;25.60;99.90;;;;;;5084319;28;20283;-58
2023/06/28 12:26:49;;;;;;;10.77;7.40;;;25.70;99.90;;;;;;5083456;28;20627;-57
2023/06/28 12:29:20;;;;;;;17.17;7.37;;;25.80;99.90;;;;;;5086737;28;20222;-58
2023/06/28 12:31:49;;;;;;;13.57;7.60;;;26.00;99.90;;;;;;5085519;28;20223;-58
2023/06/28 12:34:23;;;;;;;13.00;7.53;;;26.20;99.90;;;;;;5085486;28;20231;-58
2023/06/28 12:36:55;;;;;;;13.97;7.77;;;26.40;99.90;;;;;;5088355;28;20215;-57
2023/06/28 12:39:25;;;;;;;12.43;8.10;;;26.40;99.90;;;;;;5089858;28;20194;-58
2023/06/28 12:42:02;;;;;;;11.67;7.77;;;26.30;99.90;;;;;;5085613;28;20652;-58
2023/06/28 12:44:47;;;;;;;15.30;8.60;;;26.20;99.90;;;;;;5080905;28;20242;-57
2023/06/28 12:47:15;;;;;;;12.83;7.90;;;26.10;99.90;;;;;;5089325;28;20301;-58
2023/06/28 12:49:44;;;;;;;16.50;7.70;;;26.00;99.90;;;;;;5090123;28;20230;-57
2023/06/28 12:52:13;;;;;;;14.03;8.07;;;26.00;99.90;;;;;;5082700;28;20709;-57
2023/06/28 12:54:41;;;;;;;21.23;8.77;;;25.90;99.90;;;;;;5083575;28;20668;-58